Time;durP1;ratioP1;P1;durP2;ratioP2;P2;SDS_P1;SDS_P2;PMS_P1;PMS_P2;Temp;Humidity;BMP_temperature;BMP_pressure;BME280_temperature;BME280_humidity;BME280_pressure;Samples;Min_cycle;Max_cycle;Signal;HPM_P1;HPM_P2
2023/03/13 00:01:21;;;;;;;57.00;48.55;;;;;;;;;;5055039;28;20187;-50
2023/03/13 00:03:47;;;;;;;54.63;47.10;;;;;;;;;;5055916;28;20193;-51
2023/03/13 00:06:14;;;;;;;52.97;45.28;;;;;;;;;;5048374;28;20179;-51
2023/03/13 00:08:40;;;;;;;50.38;44.08;;;;;;;;;;5051268;28;20452;-51
2023/03/13 00:11:06;;;;;;;54.00;45.42;;;;;;;;;;5059207;28;20218;-50
2023/03/13 00:13:32;;;;;;;47.85;41.90;;;;;;;;;;5056302;28;20288;-50
2023/03/13 00:16:02;;;;;;;50.22;42.60;;;;;;;;;;5045042;28;20186;-50
2023/03/13 00:18:28;;;;;;;45.58;40.58;;;;;;;;;;5049680;28;20186;-50
2023/03/13 00:20:58;;;;;;;46.58;40.35;;;;;;;;;;5039832;28;20203;-51
2023/03/13 00:23:24;;;;;;;43.75;38.20;;;;;;;;;;5047060;28;20291;-50
2023/03/13 00:25:56;;;;;;;44.33;38.55;;;;;;;;;;5059451;28;20266;-51
2023/03/13 00:28:21;;;;;;;44.15;36.97;;;;;;;;;;5042015;28;20267;-50
2023/03/13 00:30:47;;;;;;;43.42;37.53;;;;;;;;;;5062473;28;20293;-50
2023/03/13 00:33:13;;;;;;;40.25;35.70;;;;;;;;;;5059153;28;20208;-51
2023/03/13 00:35:39;;;;;;;38.85;33.83;;;;;;;;;;5048238;28;20241;-50
2023/03/13 00:38:05;;;;;;;39.75;34.85;;;;;;;;;;5041124;28;20187;-50
2023/03/13 00:40:31;;;;;;;39.35;34.08;;;;;;;;;;5066114;28;20483;-51
2023/03/13 00:42:57;;;;;;;40.55;34.28;;;;;;;;;;5056387;28;20179;-50
2023/03/13 00:45:23;;;;;;;38.63;32.53;;;;;;;;;;5058519;28;20170;-50
2023/03/13 00:47:48;;;;;;;34.03;30.08;;;;;;;;;;5055506;28;20179;-50
2023/03/13 00:50:15;;;;;;;35.15;29.80;;;;;;;;;;5067283;28;20262;-51
2023/03/13 00:52:40;;;;;;;35.08;30.50;;;;;;;;;;5051740;28;20276;-50
2023/03/13 00:55:07;;;;;;;34.13;30.38;;;;;;;;;;5055001;28;20263;-51
2023/03/13 00:57:36;;;;;;;34.92;30.02;;;;;;;;;;5058680;28;20179;-50
2023/03/13 01:00:04;;;;;;;33.05;28.52;;;;;;;;;;5041052;28;20178;-50
2023/03/13 01:02:30;;;;;;;31.90;27.33;;;;;;;;;;5048507;28;20172;-50
2023/03/13 01:04:56;;;;;;;31.02;26.85;;;;;;;;;;5060414;28;20178;-50
2023/03/13 01:07:22;;;;;;;29.60;26.13;;;;;;;;;;5042068;28;20178;-51
2023/03/13 01:09:48;;;;;;;30.73;26.52;;;;;;;;;;5047303;28;20271;-50
2023/03/13 01:12:14;;;;;;;29.23;26.13;;;;;;;;;;5051127;28;20242;-51
2023/03/13 01:14:40;;;;;;;29.25;24.50;;;;;;;;;;5049228;28;20585;-50
2023/03/13 01:17:05;;;;;;;26.40;23.60;;;;;;;;;;5059739;28;20183;-51
2023/03/13 01:19:31;;;;;;;28.70;24.17;;;;;;;;;;5046759;28;20200;-50
2023/03/13 01:21:57;;;;;;;28.65;24.90;;;;;;;;;;5045573;28;20202;-50
2023/03/13 01:24:24;;;;;;;28.55;24.33;;;;;;;;;;5055498;28;20558;-50
2023/03/13 01:26:50;;;;;;;25.98;22.50;;;;;;;;;;5055161;28;20190;-50
2023/03/13 01:29:15;;;;;;;26.08;22.42;;;;;;;;;;5050496;28;20432;-51
2023/03/13 01:31:41;;;;;;;24.85;22.15;;;;;;;;;;5063225;28;20211;-51
2023/03/13 01:34:08;;;;;;;26.35;21.80;;;;;;;;;;5049324;28;20582;-50
2023/03/13 01:36:35;;;;;;;24.00;20.77;;;;;;;;;;5043991;28;20187;-50
2023/03/13 01:39:01;;;;;;;25.35;21.77;;;;;;;;;;5043271;28;20571;-50
2023/03/13 01:41:28;;;;;;;25.02;21.58;;;;;;;;;;5044459;28;20187;-51
2023/03/13 01:43:54;;;;;;;24.02;21.42;;;;;;;;;;5040841;28;20180;-50
2023/03/13 01:46:25;;;;;;;24.20;19.73;;;;;;;;;;5062277;28;20254;-51
2023/03/13 01:48:54;;;;;;;21.88;19.60;;;;;;;;;;5045579;28;20186;-50
2023/03/13 01:51:32;;;;;;;22.40;19.88;;;;;;;;;;5057019;28;20218;-50
2023/03/13 01:54:01;;;;;;;24.90;19.58;;;;;;;;;;5056349;28;20446;-50
2023/03/13 01:56:31;;;;;;;23.67;19.30;;;;;;;;;;5053964;28;20178;-50
2023/03/13 01:58:58;;;;;;;21.40;19.08;;;;;;;;;;5044829;28;20601;-50
2023/03/13 02:01:24;;;;;;;21.73;18.65;;;;;;;;;;5057608;28;20197;-50
2023/03/13 02:03:50;;;;;;;21.00;17.98;;;;;;;;;;5043398;28;20571;-50
2023/03/13 02:06:17;;;;;;;20.65;17.15;;;;;;;;;;5053925;28;20263;-50
2023/03/13 02:08:48;;;;;;;19.27;16.17;;;;;;;;;;5046008;28;20179;-50
2023/03/13 02:11:43;;;;;;;19.42;16.80;;;;;;;;;;5042145;28;20208;-50
2023/03/13 02:14:09;;;;;;;18.20;15.52;;;;;;;;;;5059722;28;20198;-50
2023/03/13 02:16:35;;;;;;;18.52;16.48;;;;;;;;;;5067901;28;20186;-50
2023/03/13 02:19:07;;;;;;;18.77;15.82;;;;;;;;;;5045978;28;20190;-50
2023/03/13 02:21:45;;;;;;;18.73;15.75;;;;;;;;;;5055131;28;20469;-50
2023/03/13 02:24:31;;;;;;;19.45;15.77;;;;;;;;;;5052919;28;20186;-50
2023/03/13 02:26:57;;;;;;;17.67;15.20;;;;;;;;;;5052489;28;20272;-50
2023/03/13 02:29:24;;;;;;;16.58;14.70;;;;;;;;;;5051448;28;20326;-50
2023/03/13 02:31:51;;;;;;;17.10;14.38;;;;;;;;;;5065557;28;20206;-50
2023/03/13 02:34:20;;;;;;;16.48;14.52;;;;;;;;;;5073461;28;20184;-50
2023/03/13 02:36:46;;;;;;;15.70;13.38;;;;;;;;;;5051896;28;20299;-50
2023/03/13 02:39:13;;;;;;;15.25;13.32;;;;;;;;;;5046404;28;20183;-50
2023/03/13 02:41:41;;;;;;;16.98;14.13;;;;;;;;;;5047129;28;20183;-50
2023/03/13 02:44:07;;;;;;;16.85;13.27;;;;;;;;;;5064605;28;20180;-50
2023/03/13 02:46:44;;;;;;;15.27;12.65;;;;;;;;;;5056113;28;20189;-50
2023/03/13 02:49:20;;;;;;;15.52;13.45;;;;;;;;;;5050544;28;20202;-50
2023/03/13 02:51:46;;;;;;;15.23;12.82;;;;;;;;;;5057389;28;20202;-50
2023/03/13 02:54:16;;;;;;;15.63;12.60;;;;;;;;;;5063518;28;20183;-50
2023/03/13 02:56:44;;;;;;;17.33;13.38;;;;;;;;;;5060249;28;20242;-50
2023/03/13 02:59:10;;;;;;;14.55;12.32;;;;;;;;;;5047866;28;20187;-50
2023/03/13 03:01:36;;;;;;;14.90;12.43;;;;;;;;;;5061716;28;20205;-50
2023/03/13 03:04:02;;;;;;;14.65;11.88;;;;;;;;;;5055270;28;20245;-50
2023/03/13 03:06:28;;;;;;;14.60;12.43;;;;;;;;;;5052243;28;20249;-51
2023/03/13 03:08:54;;;;;;;14.30;11.77;;;;;;;;;;5046394;28;20184;-50
2023/03/13 03:11:19;;;;;;;14.77;11.68;;;;;;;;;;5055510;28;20218;-50
2023/03/13 03:13:45;;;;;;;12.43;10.73;;;;;;;;;;5054985;28;20176;-50
2023/03/13 03:16:14;;;;;;;13.00;11.38;;;;;;;;;;5049376;28;20176;-50
2023/03/13 03:18:40;;;;;;;14.07;11.25;;;;;;;;;;5055780;28;20186;-50
2023/03/13 03:21:05;;;;;;;13.05;10.40;;;;;;;;;;5057015;28;20485;-51
2023/03/13 03:23:32;;;;;;;12.18;10.25;;;;;;;;;;5058420;28;20206;-50
2023/03/13 03:25:58;;;;;;;13.10;11.38;;;;;;;;;;5055096;28;20179;-50
2023/03/13 03:28:24;;;;;;;12.65;10.35;;;;;;;;;;5051436;28;20183;-50
2023/03/13 03:30:53;;;;;;;13.07;11.00;;;;;;;;;;5057472;28;20247;-50
2023/03/13 03:33:19;;;;;;;11.25;10.05;;;;;;;;;;5044680;28;20175;-50
2023/03/13 03:35:44;;;;;;;11.10;9.40;;;;;;;;;;5042739;28;20222;-50
2023/03/13 03:38:10;;;;;;;10.85;9.43;;;;;;;;;;5046669;28;20175;-50
2023/03/13 03:40:36;;;;;;;11.38;9.60;;;;;;;;;;5056559;28;20206;-51
2023/03/13 03:43:02;;;;;;;11.95;10.13;;;;;;;;;;5052587;28;20175;-50
2023/03/13 03:45:28;;;;;;;12.40;9.10;;;;;;;;;;5051909;28;20262;-51
2023/03/13 03:47:58;;;;;;;11.00;9.60;;;;;;;;;;5045614;28;20182;-50
2023/03/13 03:50:24;;;;;;;11.15;9.07;;;;;;;;;;5055753;28;20296;-50
2023/03/13 03:52:50;;;;;;;10.45;8.85;;;;;;;;;;5058686;28;20212;-50
2023/03/13 03:55:16;;;;;;;10.75;9.10;;;;;;;;;;5065874;28;20183;-50
2023/03/13 03:57:42;;;;;;;10.38;8.05;;;;;;;;;;5053257;28;20320;-50
2023/03/13 04:00:10;;;;;;;9.65;8.00;;;;;;;;;;5052723;28;20573;-50
2023/03/13 04:02:36;;;;;;;9.68;7.72;;;;;;;;;;5049471;28;20236;-50
2023/03/13 04:05:03;;;;;;;10.95;7.40;;;;;;;;;;5047084;28;20215;-50
2023/03/13 04:07:29;;;;;;;8.82;7.30;;;;;;;;;;5047560;28;20183;-50
2023/03/13 04:09:54;;;;;;;8.63;7.32;;;;;;;;;;5065523;28;20187;-51
2023/03/13 04:12:20;;;;;;;8.70;7.40;;;;;;;;;;5057677;28;20286;-49
2023/03/13 04:14:46;;;;;;;11.73;8.27;;;;;;;;;;5060557;28;20206;-50
2023/03/13 04:17:12;;;;;;;10.25;7.28;;;;;;;;;;5041276;28;20581;-50
2023/03/13 04:19:38;;;;;;;10.25;7.60;;;;;;;;;;5061133;28;20214;-50
2023/03/13 04:22:04;;;;;;;9.23;7.22;;;;;;;;;;5060002;28;20262;-50
2023/03/13 04:24:30;;;;;;;10.15;6.68;;;;;;;;;;5041258;28;20203;-51
2023/03/13 04:26:56;;;;;;;8.63;6.97;;;;;;;;;;5060859;28;20188;-50
2023/03/13 04:29:22;;;;;;;8.00;7.20;;;;;;;;;;5041929;28;20215;-50
2023/03/13 04:31:48;;;;;;;8.18;6.47;;;;;;;;;;5060358;28;20319;-50
2023/03/13 04:34:14;;;;;;;10.02;7.00;;;;;;;;;;5064276;28;20182;-50
2023/03/13 04:36:39;;;;;;;10.65;6.82;;;;;;;;;;5044539;28;20691;-50
2023/03/13 04:39:05;;;;;;;9.45;7.00;;;;;;;;;;5041892;28;20206;-50
2023/03/13 04:41:31;;;;;;;13.40;7.45;;;;;;;;;;5051864;28;20195;-50
2023/03/13 04:43:57;;;;;;;10.63;6.90;;;;;;;;;;5039842;28;20241;-50
2023/03/13 04:46:23;;;;;;;10.70;6.93;;;;;;;;;;5044860;28;20180;-50
2023/03/13 04:48:49;;;;;;;8.90;6.75;;;;;;;;;;5038015;28;20187;-50
2023/03/13 04:51:15;;;;;;;8.65;6.60;;;;;;;;;;5045882;28;20206;-50
2023/03/13 04:53:41;;;;;;;9.75;6.72;;;;;;;;;;5054509;28;20665;-50
2023/03/13 04:56:07;;;;;;;8.60;6.20;;;;;;;;;;5046411;28;20176;-50
2023/03/13 04:58:33;;;;;;;12.85;7.72;;;;;;;;;;5047994;28;20182;-50
2023/03/13 05:00:59;;;;;;;27.30;10.98;;;;;;;;;;5057433;28;20217;-50
2023/03/13 05:03:25;;;;;;;31.65;10.50;;;;;;;;;;5040004;28;20207;-50
2023/03/13 05:05:51;;;;;;;29.05;10.25;;;;;;;;;;5051382;28;20182;-50
2023/03/13 05:08:17;;;;;;;27.65;9.52;;;;;;;;;;5042861;28;20184;-50
2023/03/13 05:10:43;;;;;;;20.55;8.00;;;;;;;;;;5053323;28;20631;-50
2023/03/13 05:13:09;;;;;;;17.08;8.30;;;;;;;;;;5047108;28;20271;-50
2023/03/13 05:15:35;;;;;;;21.33;7.75;;;;;;;;;;5059627;28;20254;-50
2023/03/13 05:18:01;;;;;;;20.63;8.07;;;;;;;;;;5052608;28;20192;-50
2023/03/13 05:20:27;;;;;;;20.55;8.02;;;;;;;;;;5047472;28;20585;-50
2023/03/13 05:22:53;;;;;;;17.48;7.90;;;;;;;;;;5063619;28;20182;-51
2023/03/13 05:25:19;;;;;;;16.65;7.38;;;;;;;;;;5059718;28;20180;-50
2023/03/13 05:27:45;;;;;;;19.70;7.45;;;;;;;;;;5038248;28;20193;-50
2023/03/13 05:30:11;;;;;;;12.55;6.90;;;;;;;;;;5043890;28;20195;-50
2023/03/13 05:32:37;;;;;;;14.73;6.68;;;;;;;;;;5055721;28;20289;-50
2023/03/13 05:35:03;;;;;;;11.73;6.40;;;;;;;;;;5044083;28;20243;-50
2023/03/13 05:37:29;;;;;;;15.73;6.78;;;;;;;;;;5048365;28;20190;-50
2023/03/13 05:39:55;;;;;;;13.20;6.50;;;;;;;;;;5057137;28;20184;-50
2023/03/13 05:42:21;;;;;;;11.30;6.03;;;;;;;;;;5042278;28;20180;-50
2023/03/13 05:44:47;;;;;;;14.40;6.47;;;;;;;;;;5074116;28;20197;-50
2023/03/13 05:47:12;;;;;;;11.88;6.05;;;;;;;;;;5046825;28;20221;-50
2023/03/13 05:49:38;;;;;;;10.88;5.30;;;;;;;;;;5043479;28;20247;-50
2023/03/13 05:52:04;;;;;;;8.35;5.30;;;;;;;;;;5054894;28;20203;-50
2023/03/13 05:54:30;;;;;;;10.27;4.78;;;;;;;;;;5074448;28;20409;-50
2023/03/13 05:56:56;;;;;;;12.18;5.95;;;;;;;;;;5056820;28;20178;-50
2023/03/13 05:59:22;;;;;;;11.77;5.35;;;;;;;;;;5065744;28;20206;-50
2023/03/13 06:01:48;;;;;;;8.73;5.40;;;;;;;;;;5039615;28;20558;-50
2023/03/13 06:04:14;;;;;;;8.98;5.57;;;;;;;;;;5050770;28;20184;-50
2023/03/13 06:06:40;;;;;;;9.63;5.03;;;;;;;;;;5056559;28;20271;-50
2023/03/13 06:09:06;;;;;;;8.55;5.45;;;;;;;;;;5064440;28;20175;-50
2023/03/13 06:11:32;;;;;;;11.75;5.07;;;;;;;;;;5047361;28;20207;-50
2023/03/13 06:13:58;;;;;;;7.95;4.55;;;;;;;;;;5065868;28;20224;-50
2023/03/13 06:16:23;;;;;;;9.35;4.65;;;;;;;;;;5061835;28;20203;-50
2023/03/13 06:18:50;;;;;;;9.90;4.65;;;;;;;;;;5054876;28;20558;-50
2023/03/13 06:21:15;;;;;;;7.20;4.43;;;;;;;;;;5045624;28;20225;-50
2023/03/13 06:23:41;;;;;;;9.50;4.57;;;;;;;;;;5062247;28;20607;-49
2023/03/13 06:26:07;;;;;;;7.22;4.40;;;;;;;;;;5053758;28;20180;-50
2023/03/13 06:28:33;;;;;;;5.68;4.15;;;;;;;;;;5052788;28;20262;-50
2023/03/13 06:31:03;;;;;;;8.75;4.85;;;;;;;;;;5060697;28;20326;-50
2023/03/13 06:33:29;;;;;;;6.82;4.13;;;;;;;;;;5055424;28;20187;-50
2023/03/13 06:35:56;;;;;;;7.97;4.18;;;;;;;;;;5050942;28;20191;-50
2023/03/13 06:38:22;;;;;;;8.40;4.28;;;;;;;;;;5044770;28;20211;-50
2023/03/13 06:40:48;;;;;;;7.72;4.68;;;;;;;;;;5054066;28;20214;-50
2023/03/13 06:43:14;;;;;;;6.85;3.90;;;;;;;;;;5057257;28;20238;-50
2023/03/13 06:45:40;;;;;;;7.13;4.40;;;;;;;;;;5066622;28;20191;-50
2023/03/13 06:48:05;;;;;;;6.90;3.53;;;;;;;;;;5052734;28;20175;-50
2023/03/13 06:50:31;;;;;;;5.80;3.45;;;;;;;;;;5053318;28;20263;-50
2023/03/13 06:52:57;;;;;;;5.85;3.92;;;;;;;;;;5057537;28;20209;-50
2023/03/13 06:55:24;;;;;;;4.88;3.50;;;;;;;;;;5058073;28;20175;-50
2023/03/13 06:57:50;;;;;;;7.47;3.95;;;;;;;;;;5063286;28;20197;-50
2023/03/13 07:00:17;;;;;;;5.88;3.50;;;;;;;;;;5053077;28;20237;-50
2023/03/13 07:02:42;;;;;;;6.13;3.75;;;;;;;;;;5048369;28;20566;-50
2023/03/13 07:05:08;;;;;;;5.97;4.10;;;;;;;;;;5045492;28;20317;-50
2023/03/13 07:07:34;;;;;;;5.45;3.40;;;;;;;;;;5040193;28;20195;-50
2023/03/13 07:10:00;;;;;;;5.93;3.20;;;;;;;;;;5059300;28;20194;-50
2023/03/13 07:12:26;;;;;;;7.05;3.60;;;;;;;;;;5050527;28;20221;-50
2023/03/13 07:14:52;;;;;;;6.43;3.65;;;;;;;;;;5055572;28;20186;-50
2023/03/13 07:17:18;;;;;;;4.65;3.10;;;;;;;;;;5037037;28;20213;-50
2023/03/13 07:19:44;;;;;;;5.55;3.25;;;;;;;;;;5041780;28;20895;-50
2023/03/13 07:22:10;;;;;;;5.38;3.00;;;;;;;;;;5044612;28;20187;-50
2023/03/13 07:24:36;;;;;;;3.65;2.65;;;;;;;;;;5056900;28;20179;-50
2023/03/13 07:27:02;;;;;;;5.03;3.00;;;;;;;;;;5049502;28;20183;-50
2023/03/13 07:29:28;;;;;;;5.60;2.80;;;;;;;;;;5052796;28;20192;-50
2023/03/13 07:31:54;;;;;;;5.80;3.10;;;;;;;;;;5060750;28;20558;-50
2023/03/13 07:34:20;;;;;;;4.75;2.97;;;;;;;;;;5047349;28;20183;-50
2023/03/13 07:36:46;;;;;;;4.57;2.80;;;;;;;;;;5035766;28;20188;-50
2023/03/13 07:39:12;;;;;;;5.15;2.90;;;;;;;;;;5044367;28;20175;-50
2023/03/13 07:41:38;;;;;;;4.68;3.00;;;;;;;;;;5047796;28;21252;-50
2023/03/13 07:44:04;;;;;;;4.07;2.72;;;;;;;;;;5045030;28;20291;-50
2023/03/13 07:46:30;;;;;;;3.25;2.38;;;;;;;;;;5044505;28;20445;-50
2023/03/13 07:48:56;;;;;;;3.30;2.45;;;;;;;;;;5060844;28;20251;-51
2023/03/13 07:51:23;;;;;;;3.47;2.65;;;;;;;;;;5072518;28;20209;-49
2023/03/13 07:53:50;;;;;;;6.82;2.47;;;;;;;;;;5051655;28;20179;-50
2023/03/13 07:56:17;;;;;;;3.08;2.38;;;;;;;;;;5038941;28;20219;-50
2023/03/13 07:58:44;;;;;;;4.15;2.40;;;;;;;;;;5041018;28;20549;-50
2023/03/13 08:01:10;;;;;;;3.50;2.30;;;;;;;;;;5057433;28;20222;-50
2023/03/13 08:03:36;;;;;;;3.63;2.38;;;;;;;;;;5045044;28;20222;-50
2023/03/13 08:06:07;;;;;;;6.78;2.65;;;;;;;;;;5049381;28;20266;-50
2023/03/13 08:08:33;;;;;;;2.70;1.80;;;;;;;;;;5044819;28;20464;-50
2023/03/13 08:11:00;;;;;;;3.72;2.17;;;;;;;;;;5059417;28;20217;-50
2023/03/13 08:13:26;;;;;;;3.33;2.30;;;;;;;;;;5051998;28;20186;-50
2023/03/13 08:15:52;;;;;;;3.88;2.20;;;;;;;;;;5060271;28;20176;-50
2023/03/13 08:18:17;;;;;;;3.47;1.98;;;;;;;;;;5038237;28;20420;-50
2023/03/13 08:20:43;;;;;;;3.78;2.20;;;;;;;;;;5053733;28;20211;-50
2023/03/13 08:23:09;;;;;;;3.95;2.60;;;;;;;;;;5062212;28;20179;-50
2023/03/13 08:25:35;;;;;;;3.05;1.88;;;;;;;;;;5045320;28;20194;-50
2023/03/13 08:28:01;;;;;;;5.13;2.20;;;;;;;;;;5050952;28;20550;-50
2023/03/13 08:30:27;;;;;;;2.55;1.77;;;;;;;;;;5037090;28;20199;-50
2023/03/13 08:32:53;;;;;;;2.25;1.63;;;;;;;;;;5041440;28;20249;-49
2023/03/13 08:35:19;;;;;;;3.13;2.00;;;;;;;;;;5061084;28;20203;-49
2023/03/13 08:37:45;;;;;;;2.83;1.85;;;;;;;;;;5050934;28;20560;-49
2023/03/13 08:40:12;;;;;;;3.05;1.95;;;;;;;;;;5057569;28;20196;-49
2023/03/13 08:42:39;;;;;;;3.08;1.65;;;;;;;;;;5050059;28;20598;-49
2023/03/13 08:45:05;;;;;;;3.90;1.85;;;;;;;;;;5047824;28;20179;-49
2023/03/13 08:47:31;;;;;;;2.65;1.55;;;;;;;;;;5051992;28;20179;-49
2023/03/13 08:49:57;;;;;;;2.65;1.73;;;;;;;;;;5052034;28;20189;-49
2023/03/13 08:52:23;;;;;;;2.35;1.65;;;;;;;;;;5042714;28;20203;-49
2023/03/13 08:54:49;;;;;;;4.53;1.60;;;;;;;;;;5058017;28;20198;-50
2023/03/13 08:57:15;;;;;;;3.58;2.10;;;;;;;;;;5057038;28;20186;-49
2023/03/13 08:59:41;;;;;;;2.33;1.63;;;;;;;;;;5050034;28;20180;-49
2023/03/13 09:02:08;;;;;;;1.48;1.25;;;;;;;;;;5051179;28;20174;-50
2023/03/13 09:04:34;;;;;;;2.40;1.60;;;;;;;;;;5064172;28;20179;-50
2023/03/13 09:07:00;;;;;;;1.50;1.38;;;;;;;;;;5040819;28;20278;-50
2023/03/13 09:09:25;;;;;;;2.53;1.48;;;;;;;;;;5050336;28;20192;-50
2023/03/13 09:11:51;;;;;;;2.95;1.38;;;;;;;;;;5042243;28;20474;-49
2023/03/13 09:14:17;;;;;;;1.70;1.40;;;;;;;;;;5054462;28;20192;-50
2023/03/13 09:16:45;;;;;;;1.67;1.50;;;;;;;;;;5060760;28;20304;-50
2023/03/13 09:19:11;;;;;;;2.38;1.67;;;;;;;;;;5053133;28;20546;-50
2023/03/13 09:21:37;;;;;;;1.55;1.40;;;;;;;;;;5051885;28;20298;-50
2023/03/13 09:24:03;;;;;;;2.38;1.50;;;;;;;;;;5061320;28;20602;-50
2023/03/13 09:26:29;;;;;;;1.73;1.20;;;;;;;;;;5045814;28;20276;-50
2023/03/13 09:28:55;;;;;;;1.25;1.10;;;;;;;;;;5065019;28;20261;-50
2023/03/13 09:31:23;;;;;;;2.00;1.27;;;;;;;;;;5060250;28;20250;-50
2023/03/13 09:33:49;;;;;;;1.75;1.25;;;;;;;;;;5058030;28;20216;-50
2023/03/13 09:36:16;;;;;;;1.50;1.23;;;;;;;;;;5057573;28;20187;-49
2023/03/13 09:38:42;;;;;;;1.20;1.10;;;;;;;;;;5061343;28;20171;-50
2023/03/13 09:41:19;;;;;;;1.50;1.10;;;;;;;;;;5052258;28;20178;-50
2023/03/13 09:43:51;;;;;;;2.10;1.40;;;;;;;;;;5056497;28;20565;-50
2023/03/13 09:46:23;;;;;;;1.52;1.13;;;;;;;;;;5048774;28;20183;-50
2023/03/13 09:48:53;;;;;;;1.73;1.35;;;;;;;;;;5060901;28;20182;-50
2023/03/13 09:51:28;;;;;;;1.48;1.10;;;;;;;;;;5060168;28;20221;-49
2023/03/13 09:53:54;;;;;;;1.75;1.00;;;;;;;;;;5060181;28;20182;-49
2023/03/13 09:56:23;;;;;;;1.35;1.05;;;;;;;;;;5039904;28;20183;-49
2023/03/13 09:58:58;;;;;;;2.20;1.30;;;;;;;;;;5041665;28;20189;-50
2023/03/13 10:01:28;;;;;;;1.13;0.90;;;;;;;;;;5042954;28;20210;-50
2023/03/13 10:04:00;;;;;;;1.25;0.95;;;;;;;;;;5046051;28;20512;-50
2023/03/13 10:06:28;;;;;;;1.38;1.02;;;;;;;;;;5042958;28;20551;-50
2023/03/13 10:08:59;;;;;;;1.48;0.93;;;;;;;;;;5042549;28;20202;-50
2023/03/13 10:11:25;;;;;;;1.38;1.08;;;;;;;;;;5062713;28;20218;-50
2023/03/13 10:14:03;;;;;;;1.30;1.08;;;;;;;;;;5054328;28;20274;-50
2023/03/13 10:16:43;;;;;;;1.65;1.08;;;;;;;;;;5061091;28;20218;-49
2023/03/13 10:19:15;;;;;;;1.15;1.05;;;;;;;;;;5057435;28;20179;-50
2023/03/13 10:21:41;;;;;;;1.42;1.25;;;;;;;;;;5067872;28;20227;-50
2023/03/13 10:24:27;;;;;;;1.60;1.10;;;;;;;;;;5050668;28;20186;-50
2023/03/13 10:26:56;;;;;;;1.10;1.00;;;;;;;;;;5053176;28;20436;-50
2023/03/13 10:29:23;;;;;;;1.20;1.00;;;;;;;;;;5067017;28;20183;-50
2023/03/13 10:31:53;;;;;;;1.70;1.00;;;;;;;;;;5053821;28;20801;-50
2023/03/13 10:34:20;;;;;;;1.13;1.02;;;;;;;;;;5040963;28;20175;-50
2023/03/13 10:36:47;;;;;;;0.98;0.80;;;;;;;;;;5050356;28;20207;-49
2023/03/13 10:39:21;;;;;;;1.10;1.00;;;;;;;;;;5054488;28;20214;-50
2023/03/13 10:41:48;;;;;;;0.80;0.80;;;;;;;;;;5046922;28;20270;-50
2023/03/13 10:44:18;;;;;;;1.02;0.93;;;;;;;;;;5056190;28;20266;-50
2023/03/13 10:46:45;;;;;;;1.38;1.10;;;;;;;;;;5047981;28;20202;-50
2023/03/13 10:49:18;;;;;;;0.90;0.85;;;;;;;;;;5077602;28;20178;-50
2023/03/13 10:51:47;;;;;;;1.17;1.08;;;;;;;;;;5063157;28;20202;-49
2023/03/13 10:54:45;;;;;;;1.25;1.10;;;;;;;;;;5056204;28;20286;-49
2023/03/13 10:57:17;;;;;;;1.02;0.90;;;;;;;;;;5026468;28;20215;-49
2023/03/13 10:59:44;;;;;;;1.33;0.80;;;;;;;;;;5044182;28;20214;-49
2023/03/13 11:02:25;;;;;;;0.90;0.80;;;;;;;;;;5054044;28;20215;-49
2023/03/13 11:04:54;;;;;;;1.00;0.80;;;;;;;;;;5064259;28;20190;-49
2023/03/13 11:07:21;;;;;;;1.20;1.00;;;;;;;;;;5051988;28;20187;-50
2023/03/13 11:10:14;;;;;;;0.80;0.80;;;;;;;;;;5062101;28;20238;-50
2023/03/13 11:12:44;;;;;;;1.10;0.90;;;;;;;;;;5045578;28;20238;-49
2023/03/13 11:15:15;;;;;;;1.23;0.90;;;;;;;;;;5045523;28;20183;-49
2023/03/13 11:17:41;;;;;;;0.88;0.80;;;;;;;;;;5050809;28;20183;-49
2023/03/13 11:20:23;;;;;;;1.45;0.90;;;;;;;;;;5042333;28;20211;-49
2023/03/13 11:22:52;;;;;;;0.95;0.73;;;;;;;;;;5048419;28;20187;-50
2023/03/13 11:25:20;;;;;;;2.15;0.63;;;;;;;;;;5064671;28;20183;-49
2023/03/13 11:27:55;;;;;;;0.73;0.70;;;;;;;;;;5059335;28;20209;-49
2023/03/13 11:30:39;;;;;;;0.82;0.82;;;;;;;;;;5051539;28;20589;-49
2023/03/13 11:33:12;;;;;;;0.70;0.70;;;;;;;;;;5043299;28;20929;-49
2023/03/13 11:36:00;;;;;;;0.82;0.82;;;;;;;;;;5044478;28;20171;-49
2023/03/13 11:38:35;;;;;;;1.23;0.93;;;;;;;;;;5049494;28;20254;-49
2023/03/13 11:41:05;;;;;;;0.50;0.50;;;;;;;;;;5064531;28;20513;-49
2023/03/13 11:43:44;;;;;;;0.70;0.70;;;;;;;;;;5049035;28;20184;-49
2023/03/13 11:46:13;;;;;;;0.85;0.73;;;;;;;;;;5049653;28;20176;-49
2023/03/13 11:48:49;;;;;;;0.80;0.80;;;;;;;;;;5049797;28;20187;-50
2023/03/13 11:51:23;;;;;;;0.60;0.60;;;;;;;;;;5057943;28;20205;-49
2023/03/13 11:54:00;;;;;;;0.80;0.80;;;;;;;;;;5057196;28;20210;-49
2023/03/13 11:56:29;;;;;;;0.85;0.70;;;;;;;;;;5052538;28;20480;-49
2023/03/13 11:58:55;;;;;;;0.93;0.75;;;;;;;;;;5041944;28;20186;-50
2023/03/13 12:01:24;;;;;;;0.70;0.60;;;;;;;;;;5045627;28;20465;-50
2023/03/13 12:04:14;;;;;;;0.65;0.65;;;;;;;;;;5043532;28;20195;-50
2023/03/13 12:06:45;;;;;;;0.65;0.65;;;;;;;;;;5054062;28;20195;-50
2023/03/13 12:09:12;;;;;;;0.95;0.82;;;;;;;;;;5060217;28;20443;-50
2023/03/13 12:12:04;;;;;;;1.70;0.90;;;;;;;;;;5051872;28;20586;-50
2023/03/13 12:14:38;;;;;;;0.52;0.52;;;;;;;;;;5051175;28;20202;-50
2023/03/13 12:17:26;;;;;;;3.83;1.73;;;;;;;;;;5061781;28;20210;-49
2023/03/13 12:20:00;;;;;;;7.57;3.40;;;;;;;;;;5061631;28;20184;-50
2023/03/13 12:22:38;;;;;;;10.65;5.13;;;;;;;;;;5049020;28;20179;-50
2023/03/13 12:25:16;;;;;;;9.05;4.63;;;;;;;;;;5058715;28;20189;-50
2023/03/13 12:27:45;;;;;;;10.73;4.10;;;;;;;;;;5069574;28;20213;-50
2023/03/13 12:30:29;;;;;;;10.20;3.65;;;;;;;;;;5055003;28;20194;-50
2023/03/13 12:33:01;;;;;;;7.88;3.92;;;;;;;;;;5053367;28;20220;-50
2023/03/13 12:35:28;;;;;;;6.93;2.80;;;;;;;;;;5053746;28;20487;-50
2023/03/13 12:38:14;;;;;;;10.18;3.20;;;;;;;;;;5056820;28;20176;-49
2023/03/13 12:40:55;;;;;;;7.82;3.20;;;;;;;;;;5047667;28;20511;-50
2023/03/13 12:43:24;;;;;;;14.48;2.92;;;;;;;;;;5052444;28;20182;-50
2023/03/13 12:45:56;;;;;;;9.07;3.05;;;;;;;;;;5061173;28;20182;-50
2023/03/13 12:48:22;;;;;;;8.20;2.83;;;;;;;;;;5047134;28;20282;-50
2023/03/13 12:50:57;;;;;;;7.18;3.13;;;;;;;;;;5044724;28;20603;-49
2023/03/13 12:53:23;;;;;;;7.32;2.60;;;;;;;;;;5040832;28;20186;-50
2023/03/13 12:55:49;;;;;;;7.40;3.40;;;;;;;;;;5055562;28;20179;-50
2023/03/13 12:58:36;;;;;;;5.93;2.95;;;;;;;;;;5050346;28;20178;-50
2023/03/13 13:01:03;;;;;;;8.18;3.05;;;;;;;;;;5053770;28;20454;-50
2023/03/13 13:03:35;;;;;;;11.35;3.33;;;;;;;;;;5041667;28;20203;-50
2023/03/13 13:06:12;;;;;;;10.13;3.65;;;;;;;;;;5062454;28;20189;-50
2023/03/13 13:08:39;;;;;;;14.77;4.25;;;;;;;;;;5045474;28;20184;-50
2023/03/13 13:11:23;;;;;;;10.88;3.88;;;;;;;;;;5052823;28;20527;-50
2023/03/13 13:13:49;;;;;;;11.55;4.63;;;;;;;;;;5052490;28;20178;-49
2023/03/13 13:16:19;;;;;;;10.98;3.95;;;;;;;;;;5044453;28;20443;-49
2023/03/13 13:18:45;;;;;;;12.27;3.28;;;;;;;;;;5053555;28;20266;-49
2023/03/13 13:21:19;;;;;;;9.18;2.95;;;;;;;;;;5048148;28;20269;-50
2023/03/13 13:23:46;;;;;;;6.32;2.78;;;;;;;;;;5039356;28;20198;-49
2023/03/13 13:26:36;;;;;;;5.18;2.53;;;;;;;;;;5048968;28;20198;-50
2023/03/13 13:29:24;;;;;;;9.32;2.80;;;;;;;;;;5053371;28;20174;-50
2023/03/13 13:31:50;;;;;;;5.13;2.22;;;;;;;;;;5051745;28;20215;-49
2023/03/13 13:34:29;;;;;;;6.65;2.60;;;;;;;;;;5048876;28;20456;-50
2023/03/13 13:36:56;;;;;;;6.50;2.30;;;;;;;;;;5036939;28;20175;-50
2023/03/13 13:39:28;;;;;;;6.70;2.13;;;;;;;;;;5040489;28;20179;-50
2023/03/13 13:41:54;;;;;;;6.32;2.47;;;;;;;;;;5043986;28;20222;-49
2023/03/13 13:44:27;;;;;;;7.07;2.08;;;;;;;;;;5038418;28;20215;-49
2023/03/13 13:46:53;;;;;;;5.80;2.13;;;;;;;;;;5038084;28;20180;-49
2023/03/13 13:49:20;;;;;;;5.65;2.33;;;;;;;;;;5061103;28;20182;-50
2023/03/13 13:52:02;;;;;;;4.65;2.40;;;;;;;;;;5052260;28;20458;-49
2023/03/13 13:54:32;;;;;;;7.00;2.30;;;;;;;;;;5073674;28;20250;-49
2023/03/13 13:57:08;;;;;;;7.53;2.35;;;;;;;;;;5052724;28;20183;-49
2023/03/13 13:59:44;;;;;;;5.13;2.50;;;;;;;;;;5043039;28;20180;-49
2023/03/13 14:02:16;;;;;;;6.05;2.03;;;;;;;;;;5041321;28;20274;-49
2023/03/13 14:04:49;;;;;;;6.38;1.80;;;;;;;;;;5049999;28;20186;-50
2023/03/13 14:07:28;;;;;;;4.57;1.67;;;;;;;;;;5048979;28;20199;-50
2023/03/13 14:10:12;;;;;;;3.53;1.50;;;;;;;;;;5059326;28;20199;-49
2023/03/13 14:12:39;;;;;;;6.93;1.98;;;;;;;;;;5047902;28;20261;-49
2023/03/13 14:15:09;;;;;;;3.50;1.70;;;;;;;;;;5048129;28;20179;-50
2023/03/13 14:17:43;;;;;;;5.38;1.77;;;;;;;;;;5055872;28;20232;-49
2023/03/13 14:20:21;;;;;;;3.90;1.70;;;;;;;;;;5057997;28;20652;-49
2023/03/13 14:22:48;;;;;;;3.95;1.52;;;;;;;;;;5054330;28;20187;-49
2023/03/13 14:25:14;;;;;;;6.43;1.70;;;;;;;;;;5071732;28;20188;-49
2023/03/13 14:27:43;;;;;;;3.85;1.48;;;;;;;;;;5050129;28;20195;-49
2023/03/13 14:30:10;;;;;;;2.95;1.70;;;;;;;;;;5061938;28;20202;-49
2023/03/13 14:32:36;;;;;;;3.15;1.50;;;;;;;;;;5047530;28;20203;-49
2023/03/13 14:35:04;;;;;;;4.75;1.50;;;;;;;;;;5043764;28;20172;-49
2023/03/13 14:37:40;;;;;;;2.13;1.50;;;;;;;;;;5048807;28;20184;-49
2023/03/13 14:40:18;;;;;;;3.55;1.55;;;;;;;;;;5058706;28;20455;-49
2023/03/13 14:42:48;;;;;;;5.18;1.80;;;;;;;;;;5055589;28;20190;-49